<?xml version="1.0" encoding="utf-8"?>
<gpx xmlns:xsi="http://www.w3.org/2001/XMLSchema-instance" xmlns:xsd="http://www.w3.org/2001/XMLSchema" version="1.1" creator="Shapelink.com" xmlns="http://www.topografix.com/GPX/1/1" xmlns:gpxtpx="http://www.garmin.com/xmlschemas/TrackPointExtension/v1">
  <metadata>
    <name>Löpning 10.10 km, 2019-07-11</name>
    <desc></desc>
    <author><name>Marian Moron</name></author> 
    <time>2019-07-11T21:42:24Z</time>
  </metadata>
  <trk>
    <name>Löpning 10.10 km, 2019-07-11</name>
    <trkseg>
      <trkpt lat="51.229864094623" lon="4.458520867474">
        <ele>11.2</ele>
        <time>2019-07-11T21:42:24Z</time>
      </trkpt>
      <trkpt lat="51.229946823976" lon="4.458805013884">
        <ele>6.8</ele>
        <time>2019-07-11T21:42:32Z</time>
      </trkpt>
      <trkpt lat="51.230123262971" lon="4.458888497608">
        <ele>2.4</ele>
        <time>2019-07-11T21:42:39Z</time>
      </trkpt>
      <trkpt lat="51.230300037242" lon="4.458817419096">
        <ele>0.4</ele>
        <time>2019-07-11T21:42:46Z</time>
      </trkpt>
      <trkpt lat="51.230374217057" lon="4.458855472922">
        <ele>0.8</ele>
        <time>2019-07-11T21:42:50Z</time>
      </trkpt>
      <trkpt lat="51.230420149869" lon="4.459159652073">
        <ele>3.2</ele>
        <time>2019-07-11T21:42:57Z</time>
      </trkpt>
      <trkpt lat="51.230429872873" lon="4.459457628618">
        <ele>5.4</ele>
        <time>2019-07-11T21:43:03Z</time>
      </trkpt>
      <trkpt lat="51.230442948637" lon="4.459759879932">
        <ele>7.6</ele>
        <time>2019-07-11T21:43:10Z</time>
      </trkpt>
      <trkpt lat="51.230496676616" lon="4.460064981092">
        <ele>6.4</ele>
        <time>2019-07-11T21:43:17Z</time>
      </trkpt>
      <trkpt lat="51.230532048234" lon="4.460375111392">
        <ele>6</ele>
        <time>2019-07-11T21:43:24Z</time>
      </trkpt>
      <trkpt lat="51.230520062117" lon="4.460649283341">
        <ele>4.8</ele>
        <time>2019-07-11T21:43:31Z</time>
      </trkpt>
      <trkpt lat="51.23035803999" lon="4.46081700516">
        <ele>3.2</ele>
        <time>2019-07-11T21:43:41Z</time>
      </trkpt>
      <trkpt lat="51.230181265719" lon="4.460900153608">
        <ele>1.6</ele>
        <time>2019-07-11T21:43:49Z</time>
      </trkpt>
      <trkpt lat="51.229984793983" lon="4.460962263487">
        <ele>1.2</ele>
        <time>2019-07-11T21:43:57Z</time>
      </trkpt>
      <trkpt lat="51.229798715803" lon="4.461026049746">
        <ele>1</ele>
        <time>2019-07-11T21:44:05Z</time>
      </trkpt>
      <trkpt lat="51.229740545417" lon="4.46129058251">
        <ele>2.2</ele>
        <time>2019-07-11T21:44:12Z</time>
      </trkpt>
      <trkpt lat="51.229800476002" lon="4.46159987462">
        <ele>4.4</ele>
        <time>2019-07-11T21:44:20Z</time>
      </trkpt>
      <trkpt lat="51.229882031889" lon="4.461860467891">
        <ele>5.6</ele>
        <time>2019-07-11T21:44:26Z</time>
      </trkpt>
      <trkpt lat="51.229974232789" lon="4.462155259314">
        <ele>5.2</ele>
        <time>2019-07-11T21:44:33Z</time>
      </trkpt>
      <trkpt lat="51.230066936603" lon="4.46241794806">
        <ele>4.8</ele>
        <time>2019-07-11T21:44:40Z</time>
      </trkpt>
      <trkpt lat="51.230136003459" lon="4.462698238796">
        <ele>4.6</ele>
        <time>2019-07-11T21:44:47Z</time>
      </trkpt>
      <trkpt lat="51.23020129846" lon="4.462975092953">
        <ele>6</ele>
        <time>2019-07-11T21:44:53Z</time>
      </trkpt>
      <trkpt lat="51.230303306183" lon="4.463232836378">
        <ele>4.2</ele>
        <time>2019-07-11T21:44:59Z</time>
      </trkpt>
      <trkpt lat="51.230397015825" lon="4.463496279495">
        <ele>5.4</ele>
        <time>2019-07-11T21:45:06Z</time>
      </trkpt>
      <trkpt lat="51.230460718265" lon="4.463775899679">
        <ele>5.8</ele>
        <time>2019-07-11T21:45:13Z</time>
      </trkpt>
      <trkpt lat="51.230526264723" lon="4.464071194016">
        <ele>6.8</ele>
        <time>2019-07-11T21:45:20Z</time>
      </trkpt>
      <trkpt lat="51.230607066239" lon="4.464342013205">
        <ele>7.2</ele>
        <time>2019-07-11T21:45:27Z</time>
      </trkpt>
      <trkpt lat="51.230688454488" lon="4.464626746348">
        <ele>9</ele>
        <time>2019-07-11T21:45:34Z</time>
      </trkpt>
      <trkpt lat="51.230734471119" lon="4.464942827797">
        <ele>10.4</ele>
        <time>2019-07-11T21:45:41Z</time>
      </trkpt>
      <trkpt lat="51.230725837762" lon="4.465254299201">
        <ele>12.4</ele>
        <time>2019-07-11T21:45:48Z</time>
      </trkpt>
      <trkpt lat="51.230701781709" lon="4.46556199875">
        <ele>14.2</ele>
        <time>2019-07-11T21:45:54Z</time>
      </trkpt>
      <trkpt lat="51.230719467518" lon="4.465877242009">
        <ele>16.2</ele>
        <time>2019-07-11T21:46:01Z</time>
      </trkpt>
      <trkpt lat="51.230765819425" lon="4.466186785576">
        <ele>13.8</ele>
        <time>2019-07-11T21:46:08Z</time>
      </trkpt>
      <trkpt lat="51.230792473867" lon="4.46647562585">
        <ele>11.8</ele>
        <time>2019-07-11T21:46:15Z</time>
      </trkpt>
      <trkpt lat="51.230797503007" lon="4.46676983054">
        <ele>10.6</ele>
        <time>2019-07-11T21:46:22Z</time>
      </trkpt>
      <trkpt lat="51.230811081685" lon="4.467082391591">
        <ele>9.6</ele>
        <time>2019-07-11T21:46:29Z</time>
      </trkpt>
      <trkpt lat="51.230833042263" lon="4.467363017603">
        <ele>7.6</ele>
        <time>2019-07-11T21:46:37Z</time>
      </trkpt>
      <trkpt lat="51.23099925534" lon="4.467469551552">
        <ele>4.6</ele>
        <time>2019-07-11T21:46:44Z</time>
      </trkpt>
      <trkpt lat="51.231179717647" lon="4.467433174106">
        <ele>1.2</ele>
        <time>2019-07-11T21:46:51Z</time>
      </trkpt>
      <trkpt lat="51.231364538542" lon="4.467338542455">
        <ele>0</ele>
        <time>2019-07-11T21:46:58Z</time>
      </trkpt>
      <trkpt lat="51.231543324469" lon="4.467363855793">
        <ele>0</ele>
        <time>2019-07-11T21:47:05Z</time>
      </trkpt>
      <trkpt lat="51.231732503952" lon="4.467424037835">
        <ele>0</ele>
        <time>2019-07-11T21:47:12Z</time>
      </trkpt>
      <trkpt lat="51.231905925463" lon="4.46752923068">
        <ele>0</ele>
        <time>2019-07-11T21:47:18Z</time>
      </trkpt>
      <trkpt lat="51.232066774124" lon="4.467650935868">
        <ele>0</ele>
        <time>2019-07-11T21:47:25Z</time>
      </trkpt>
      <trkpt lat="51.232199962515" lon="4.467868278535">
        <ele>0.8</ele>
        <time>2019-07-11T21:47:32Z</time>
      </trkpt>
      <trkpt lat="51.232331893621" lon="4.468117388603">
        <ele>5</ele>
        <time>2019-07-11T21:47:39Z</time>
      </trkpt>
      <trkpt lat="51.232473044817" lon="4.46834981869">
        <ele>7.8</ele>
        <time>2019-07-11T21:47:46Z</time>
      </trkpt>
      <trkpt lat="51.232601371706" lon="4.468587948469">
        <ele>12</ele>
        <time>2019-07-11T21:47:53Z</time>
      </trkpt>
      <trkpt lat="51.232758783788" lon="4.468914507293">
        <ele>12</ele>
        <time>2019-07-11T21:48:02Z</time>
      </trkpt>
      <trkpt lat="51.232876381845" lon="4.469172585994">
        <ele>8.4</ele>
        <time>2019-07-11T21:48:09Z</time>
      </trkpt>
      <trkpt lat="51.232997332662" lon="4.469428485401">
        <ele>5.6</ele>
        <time>2019-07-11T21:48:16Z</time>
      </trkpt>
      <trkpt lat="51.233106297362" lon="4.469681367324">
        <ele>4.4</ele>
        <time>2019-07-11T21:48:23Z</time>
      </trkpt>
      <trkpt lat="51.233238563744" lon="4.469878844888">
        <ele>6</ele>
        <time>2019-07-11T21:48:30Z</time>
      </trkpt>
      <trkpt lat="51.233344427141" lon="4.470118315771">
        <ele>6.4</ele>
        <time>2019-07-11T21:48:37Z</time>
      </trkpt>
      <trkpt lat="51.233455235859" lon="4.470384022001">
        <ele>4</ele>
        <time>2019-07-11T21:48:44Z</time>
      </trkpt>
      <trkpt lat="51.23355824941" lon="4.470638245028">
        <ele>3</ele>
        <time>2019-07-11T21:48:51Z</time>
      </trkpt>
      <trkpt lat="51.233672662345" lon="4.470899005937">
        <ele>3</ele>
        <time>2019-07-11T21:48:58Z</time>
      </trkpt>
      <trkpt lat="51.233778274285" lon="4.471165047443">
        <ele>6</ele>
        <time>2019-07-11T21:49:06Z</time>
      </trkpt>
      <trkpt lat="51.233880030551" lon="4.471404685964">
        <ele>5.6</ele>
        <time>2019-07-11T21:49:12Z</time>
      </trkpt>
      <trkpt lat="51.23400919563" lon="4.471627393047">
        <ele>3.4</ele>
        <time>2019-07-11T21:49:18Z</time>
      </trkpt>
      <trkpt lat="51.234100893616" lon="4.471881616074">
        <ele>5.4</ele>
        <time>2019-07-11T21:49:25Z</time>
      </trkpt>
      <trkpt lat="51.234179934933" lon="4.472150255969">
        <ele>8.4</ele>
        <time>2019-07-11T21:49:32Z</time>
      </trkpt>
      <trkpt lat="51.234306250166" lon="4.472401461512">
        <ele>10</ele>
        <time>2019-07-11T21:49:39Z</time>
      </trkpt>
      <trkpt lat="51.234449832113" lon="4.472607320976">
        <ele>5</ele>
        <time>2019-07-11T21:49:45Z</time>
      </trkpt>
      <trkpt lat="51.234573381319" lon="4.472863136564">
        <ele>2</ele>
        <time>2019-07-11T21:49:52Z</time>
      </trkpt>
      <trkpt lat="51.23469315867" lon="4.473091375701">
        <ele>1.6</ele>
        <time>2019-07-11T21:49:59Z</time>
      </trkpt>
      <trkpt lat="51.23481050527" lon="4.473350879325">
        <ele>1.4</ele>
        <time>2019-07-11T21:50:06Z</time>
      </trkpt>
      <trkpt lat="51.234929947345" lon="4.47359521171">
        <ele>0.6</ele>
        <time>2019-07-11T21:50:13Z</time>
      </trkpt>
      <trkpt lat="51.235056514035" lon="4.473805681219">
        <ele>0</ele>
        <time>2019-07-11T21:50:20Z</time>
      </trkpt>
      <trkpt lat="51.23513404661" lon="4.47407800915">
        <ele>0</ele>
        <time>2019-07-11T21:50:26Z</time>
      </trkpt>
      <trkpt lat="51.235218368524" lon="4.474367939071">
        <ele>1.8</ele>
        <time>2019-07-11T21:50:34Z</time>
      </trkpt>
      <trkpt lat="51.235307132845" lon="4.474646888703">
        <ele>7.8</ele>
        <time>2019-07-11T21:50:43Z</time>
      </trkpt>
      <trkpt lat="51.235368823629" lon="4.474926341249">
        <ele>6.6</ele>
        <time>2019-07-11T21:50:50Z</time>
      </trkpt>
      <trkpt lat="51.235433028983" lon="4.475232112961">
        <ele>2.4</ele>
        <time>2019-07-11T21:50:57Z</time>
      </trkpt>
      <trkpt lat="51.235515590698" lon="4.475527910212">
        <ele>2</ele>
        <time>2019-07-11T21:51:04Z</time>
      </trkpt>
      <trkpt lat="51.235554231257" lon="4.47583485539">
        <ele>0</ele>
        <time>2019-07-11T21:51:11Z</time>
      </trkpt>
      <trkpt lat="51.235594464377" lon="4.476139788912">
        <ele>0</ele>
        <time>2019-07-11T21:51:19Z</time>
      </trkpt>
      <trkpt lat="51.235675684988" lon="4.476431395213">
        <ele>0</ele>
        <time>2019-07-11T21:51:26Z</time>
      </trkpt>
      <trkpt lat="51.235734525926" lon="4.47673674783">
        <ele>0</ele>
        <time>2019-07-11T21:51:34Z</time>
      </trkpt>
      <trkpt lat="51.235804263334" lon="4.477029443778">
        <ele>0</ele>
        <time>2019-07-11T21:51:40Z</time>
      </trkpt>
      <trkpt lat="51.235873497828" lon="4.477312668179">
        <ele>0</ele>
        <time>2019-07-11T21:51:46Z</time>
      </trkpt>
      <trkpt lat="51.23594876729" lon="4.477620116271">
        <ele>2.2</ele>
        <time>2019-07-11T21:51:53Z</time>
      </trkpt>
      <trkpt lat="51.236009703703" lon="4.477934772797">
        <ele>3.8</ele>
        <time>2019-07-11T21:52:00Z</time>
      </trkpt>
      <trkpt lat="51.236060162741" lon="4.478208525651">
        <ele>1.8</ele>
        <time>2019-07-11T21:52:06Z</time>
      </trkpt>
      <trkpt lat="51.23605270285" lon="4.478507424205">
        <ele>0</ele>
        <time>2019-07-11T21:52:13Z</time>
      </trkpt>
      <trkpt lat="51.236060078922" lon="4.478796599755">
        <ele>0</ele>
        <time>2019-07-11T21:52:19Z</time>
      </trkpt>
      <trkpt lat="51.236061000931" lon="4.479113603213">
        <ele>0</ele>
        <time>2019-07-11T21:52:26Z</time>
      </trkpt>
      <trkpt lat="51.236051529384" lon="4.479430187576">
        <ele>1.2</ele>
        <time>2019-07-11T21:52:34Z</time>
      </trkpt>
      <trkpt lat="51.236057229076" lon="4.47975171726">
        <ele>0.8</ele>
        <time>2019-07-11T21:52:42Z</time>
      </trkpt>
      <trkpt lat="51.23605018828" lon="4.480078778998">
        <ele>1</ele>
        <time>2019-07-11T21:52:50Z</time>
      </trkpt>
      <trkpt lat="51.236071478306" lon="4.480388657841">
        <ele>3.2</ele>
        <time>2019-07-11T21:52:57Z</time>
      </trkpt>
      <trkpt lat="51.236069969564" lon="4.480688394585">
        <ele>5</ele>
        <time>2019-07-11T21:53:04Z</time>
      </trkpt>
      <trkpt lat="51.236072735591" lon="4.480976648126">
        <ele>7.2</ele>
        <time>2019-07-11T21:53:11Z</time>
      </trkpt>
      <trkpt lat="51.23605018828" lon="4.481284934408">
        <ele>1.4</ele>
        <time>2019-07-11T21:53:19Z</time>
      </trkpt>
      <trkpt lat="51.236020181078" lon="4.48168206883">
        <ele>3.6</ele>
        <time>2019-07-11T21:53:29Z</time>
      </trkpt>
      <trkpt lat="51.236022695648" lon="4.482008460016">
        <ele>5</ele>
        <time>2019-07-11T21:53:37Z</time>
      </trkpt>
      <trkpt lat="51.236009452246" lon="4.482298641394">
        <ele>3.8</ele>
        <time>2019-07-11T21:53:44Z</time>
      </trkpt>
      <trkpt lat="51.236002914364" lon="4.482598545776">
        <ele>2.4</ele>
        <time>2019-07-11T21:53:51Z</time>
      </trkpt>
      <trkpt lat="51.236006853857" lon="4.482923763496">
        <ele>0.4</ele>
        <time>2019-07-11T21:53:59Z</time>
      </trkpt>
      <trkpt lat="51.235990257695" lon="4.483246047551">
        <ele>0</ele>
        <time>2019-07-11T21:54:07Z</time>
      </trkpt>
      <trkpt lat="51.235972320429" lon="4.48353446873">
        <ele>0</ele>
        <time>2019-07-11T21:54:14Z</time>
      </trkpt>
      <trkpt lat="51.235964106167" lon="4.483654078443">
        <ele>0</ele>
        <time>2019-07-11T21:54:18Z</time>
      </trkpt>
      <trkpt lat="51.235977098112" lon="4.483967980598">
        <ele>0</ele>
        <time>2019-07-11T21:54:24Z</time>
      </trkpt>
      <trkpt lat="51.235981289062" lon="4.484298478915">
        <ele>0</ele>
        <time>2019-07-11T21:54:31Z</time>
      </trkpt>
      <trkpt lat="51.235998471957" lon="4.484599053849">
        <ele>0</ele>
        <time>2019-07-11T21:54:37Z</time>
      </trkpt>
      <trkpt lat="51.235999561604" lon="4.484923852474">
        <ele>0</ele>
        <time>2019-07-11T21:54:44Z</time>
      </trkpt>
      <trkpt lat="51.236001489441" lon="4.485238928095">
        <ele>0</ele>
        <time>2019-07-11T21:54:51Z</time>
      </trkpt>
      <trkpt lat="51.236005596572" lon="4.485529863844">
        <ele>0</ele>
        <time>2019-07-11T21:54:57Z</time>
      </trkpt>
      <trkpt lat="51.236017331232" lon="4.485849298053">
        <ele>0</ele>
        <time>2019-07-11T21:55:04Z</time>
      </trkpt>
      <trkpt lat="51.236020097259" lon="4.486166133873">
        <ele>0</ele>
        <time>2019-07-11T21:55:11Z</time>
      </trkpt>
      <trkpt lat="51.236035017041" lon="4.486462936952">
        <ele>0</ele>
        <time>2019-07-11T21:55:18Z</time>
      </trkpt>
      <trkpt lat="51.236040800552" lon="4.486779018401">
        <ele>0</ele>
        <time>2019-07-11T21:55:25Z</time>
      </trkpt>
      <trkpt lat="51.236051194108" lon="4.487067858675">
        <ele>0</ele>
        <time>2019-07-11T21:55:31Z</time>
      </trkpt>
      <trkpt lat="51.236060749474" lon="4.487366338134">
        <ele>0</ele>
        <time>2019-07-11T21:55:38Z</time>
      </trkpt>
      <trkpt lat="51.236079357292" lon="4.487677809538">
        <ele>0</ele>
        <time>2019-07-11T21:55:45Z</time>
      </trkpt>
      <trkpt lat="51.23608874502" lon="4.488007469665">
        <ele>0</ele>
        <time>2019-07-11T21:55:53Z</time>
      </trkpt>
      <trkpt lat="51.236098468024" lon="4.488316510318">
        <ele>0</ele>
        <time>2019-07-11T21:56:00Z</time>
      </trkpt>
      <trkpt lat="51.236101234051" lon="4.488615241234">
        <ele>0</ele>
        <time>2019-07-11T21:56:07Z</time>
      </trkpt>
      <trkpt lat="51.236115483281" lon="4.488930484493">
        <ele>0</ele>
        <time>2019-07-11T21:56:14Z</time>
      </trkpt>
      <trkpt lat="51.236120847697" lon="4.489251930358">
        <ele>0</ele>
        <time>2019-07-11T21:56:21Z</time>
      </trkpt>
      <trkpt lat="51.236100814956" lon="4.489568514721">
        <ele>0</ele>
        <time>2019-07-11T21:56:28Z</time>
      </trkpt>
      <trkpt lat="51.23606695208" lon="4.489705977881">
        <ele>0.8</ele>
        <time>2019-07-11T21:56:32Z</time>
      </trkpt>
      <trkpt lat="51.235999477785" lon="4.489770937606">
        <ele>1.4</ele>
        <time>2019-07-11T21:56:36Z</time>
      </trkpt>
      <trkpt lat="51.235992520808" lon="4.489831371105">
        <ele>0.6</ele>
        <time>2019-07-11T21:56:38Z</time>
      </trkpt>
      <trkpt lat="51.236066784442" lon="4.490085342675">
        <ele>0.6</ele>
        <time>2019-07-11T21:56:45Z</time>
      </trkpt>
      <trkpt lat="51.235997549948" lon="4.490389521826">
        <ele>0.4</ele>
        <time>2019-07-11T21:56:52Z</time>
      </trkpt>
      <trkpt lat="51.235949940756" lon="4.490698646298">
        <ele>0.8</ele>
        <time>2019-07-11T21:56:59Z</time>
      </trkpt>
      <trkpt lat="51.235899816994" lon="4.490973907894">
        <ele>0.8</ele>
        <time>2019-07-11T21:57:05Z</time>
      </trkpt>
      <trkpt lat="51.235835192545" lon="4.491326785884">
        <ele>4</ele>
        <time>2019-07-11T21:57:13Z</time>
      </trkpt>
      <trkpt lat="51.235782135118" lon="4.491628115189">
        <ele>8.2</ele>
        <time>2019-07-11T21:57:20Z</time>
      </trkpt>
      <trkpt lat="51.235719019411" lon="4.491920643499">
        <ele>9.4</ele>
        <time>2019-07-11T21:57:27Z</time>
      </trkpt>
      <trkpt lat="51.23564366613" lon="4.492219374415">
        <ele>5.8</ele>
        <time>2019-07-11T21:57:34Z</time>
      </trkpt>
      <trkpt lat="51.235574599274" lon="4.49251064544">
        <ele>6.6</ele>
        <time>2019-07-11T21:57:41Z</time>
      </trkpt>
      <trkpt lat="51.235472507732" lon="4.492771238711">
        <ele>7.2</ele>
        <time>2019-07-11T21:57:48Z</time>
      </trkpt>
      <trkpt lat="51.235370164733" lon="4.493029652688">
        <ele>6.6</ele>
        <time>2019-07-11T21:57:55Z</time>
      </trkpt>
      <trkpt lat="51.235273269969" lon="4.493306674483">
        <ele>5.4</ele>
        <time>2019-07-11T21:58:02Z</time>
      </trkpt>
      <trkpt lat="51.235182829268" lon="4.49360113063">
        <ele>5.6</ele>
        <time>2019-07-11T21:58:09Z</time>
      </trkpt>
      <trkpt lat="51.235111331661" lon="4.493891898741">
        <ele>4</ele>
        <time>2019-07-11T21:58:16Z</time>
      </trkpt>
      <trkpt lat="51.235017202924" lon="4.494166573604">
        <ele>2</ele>
        <time>2019-07-11T21:58:23Z</time>
      </trkpt>
      <trkpt lat="51.234929779707" lon="4.494447283435">
        <ele>3.6</ele>
        <time>2019-07-11T21:58:30Z</time>
      </trkpt>
      <trkpt lat="51.234858198281" lon="4.494720449556">
        <ele>4.2</ele>
        <time>2019-07-11T21:58:36Z</time>
      </trkpt>
      <trkpt lat="51.234763734268" lon="4.495016498264">
        <ele>2.2</ele>
        <time>2019-07-11T21:58:43Z</time>
      </trkpt>
      <trkpt lat="51.234644878926" lon="4.495385972416">
        <ele>2.2</ele>
        <time>2019-07-11T21:58:52Z</time>
      </trkpt>
      <trkpt lat="51.234553851492" lon="4.495662658935">
        <ele>0</ele>
        <time>2019-07-11T21:58:59Z</time>
      </trkpt>
      <trkpt lat="51.234479755496" lon="4.495936663246">
        <ele>0</ele>
        <time>2019-07-11T21:59:06Z</time>
      </trkpt>
      <trkpt lat="51.23439811579" lon="4.496205889874">
        <ele>0</ele>
        <time>2019-07-11T21:59:13Z</time>
      </trkpt>
      <trkpt lat="51.234313290962" lon="4.496481654384">
        <ele>0</ele>
        <time>2019-07-11T21:59:20Z</time>
      </trkpt>
      <trkpt lat="51.234239278785" lon="4.496755658695">
        <ele>0.4</ele>
        <time>2019-07-11T21:59:27Z</time>
      </trkpt>
      <trkpt lat="51.234169373739" lon="4.49703351868">
        <ele>2.4</ele>
        <time>2019-07-11T21:59:34Z</time>
      </trkpt>
      <trkpt lat="51.234078681581" lon="4.497314731425">
        <ele>1.2</ele>
        <time>2019-07-11T21:59:41Z</time>
      </trkpt>
      <trkpt lat="51.233987151233" lon="4.497591166487">
        <ele>2.2</ele>
        <time>2019-07-11T21:59:48Z</time>
      </trkpt>
      <trkpt lat="51.233883383311" lon="4.497855950708">
        <ele>0.4</ele>
        <time>2019-07-11T21:59:55Z</time>
      </trkpt>
      <trkpt lat="51.233786991461" lon="4.498138336919">
        <ele>0.8</ele>
        <time>2019-07-11T22:00:02Z</time>
      </trkpt>
      <trkpt lat="51.233693198" lon="4.498416029266">
        <ele>3.4</ele>
        <time>2019-07-11T22:00:09Z</time>
      </trkpt>
      <trkpt lat="51.233603176394" lon="4.498679137107">
        <ele>5.6</ele>
        <time>2019-07-11T22:00:16Z</time>
      </trkpt>
      <trkpt lat="51.23348029774" lon="4.498940987663">
        <ele>6.6</ele>
        <time>2019-07-11T22:00:24Z</time>
      </trkpt>
      <trkpt lat="51.233360101294" lon="4.49915916852">
        <ele>6</ele>
        <time>2019-07-11T22:00:30Z</time>
      </trkpt>
      <trkpt lat="51.233228086369" lon="4.499384976906">
        <ele>6.4</ele>
        <time>2019-07-11T22:00:37Z</time>
      </trkpt>
      <trkpt lat="51.233114511624" lon="4.499608689817">
        <ele>7.8</ele>
        <time>2019-07-11T22:00:44Z</time>
      </trkpt>
      <trkpt lat="51.232977467559" lon="4.499850004718">
        <ele>6.8</ele>
        <time>2019-07-11T22:00:52Z</time>
      </trkpt>
      <trkpt lat="51.232853918353" lon="4.500090900524">
        <ele>6.6</ele>
        <time>2019-07-11T22:00:59Z</time>
      </trkpt>
      <trkpt lat="51.232724166541" lon="4.500353673089">
        <ele>6.4</ele>
        <time>2019-07-11T22:01:06Z</time>
      </trkpt>
      <trkpt lat="51.232602545172" lon="4.500619379319">
        <ele>7.4</ele>
        <time>2019-07-11T22:01:13Z</time>
      </trkpt>
      <trkpt lat="51.232499447802" lon="4.50085482689">
        <ele>9.6</ele>
        <time>2019-07-11T22:01:20Z</time>
      </trkpt>
      <trkpt lat="51.232370282723" lon="4.501073426842">
        <ele>8.2</ele>
        <time>2019-07-11T22:01:27Z</time>
      </trkpt>
      <trkpt lat="51.232247152612" lon="4.501340474176">
        <ele>9.6</ele>
        <time>2019-07-11T22:01:34Z</time>
      </trkpt>
      <trkpt lat="51.232143719966" lon="4.501589668063">
        <ele>10</ele>
        <time>2019-07-11T22:01:40Z</time>
      </trkpt>
      <trkpt lat="51.232007933186" lon="4.501839532502">
        <ele>8.6</ele>
        <time>2019-07-11T22:01:48Z</time>
      </trkpt>
      <trkpt lat="51.231826045956" lon="4.502029550175">
        <ele>5.4</ele>
        <time>2019-07-11T22:01:54Z</time>
      </trkpt>
      <trkpt lat="51.231695539773" lon="4.502187800447">
        <ele>3</ele>
        <time>2019-07-11T22:02:01Z</time>
      </trkpt>
      <trkpt lat="51.231674752661" lon="4.502484016793">
        <ele>1.2</ele>
        <time>2019-07-11T22:02:10Z</time>
      </trkpt>
      <trkpt lat="51.231657402128" lon="4.502507150837">
        <ele>0.8</ele>
        <time>2019-07-11T22:02:11Z</time>
      </trkpt>
      <trkpt lat="51.231541983365" lon="4.502553670382">
        <ele>0</ele>
        <time>2019-07-11T22:02:16Z</time>
      </trkpt>
      <trkpt lat="51.231464534609" lon="4.502374884455">
        <ele>0</ele>
        <time>2019-07-11T22:02:22Z</time>
      </trkpt>
      <trkpt lat="51.231422708928" lon="4.502374130084">
        <ele>0</ele>
        <time>2019-07-11T22:02:24Z</time>
      </trkpt>
      <trkpt lat="51.231371830795" lon="4.502612427501">
        <ele>0.8</ele>
        <time>2019-07-11T22:02:30Z</time>
      </trkpt>
      <trkpt lat="51.231454476329" lon="4.502865309424">
        <ele>2.8</ele>
        <time>2019-07-11T22:02:37Z</time>
      </trkpt>
      <trkpt lat="51.231477107459" lon="4.503165129987">
        <ele>3</ele>
        <time>2019-07-11T22:02:44Z</time>
      </trkpt>
      <trkpt lat="51.231425391136" lon="4.503472829536">
        <ele>3</ele>
        <time>2019-07-11T22:02:51Z</time>
      </trkpt>
      <trkpt lat="51.23132614944" lon="4.503797376704">
        <ele>2.4</ele>
        <time>2019-07-11T22:02:58Z</time>
      </trkpt>
      <trkpt lat="51.231247778675" lon="4.504074398499">
        <ele>1.6</ele>
        <time>2019-07-11T22:03:06Z</time>
      </trkpt>
      <trkpt lat="51.231201510587" lon="4.50440288516">
        <ele>2.6</ele>
        <time>2019-07-11T22:03:13Z</time>
      </trkpt>
      <trkpt lat="51.23115767325" lon="4.504685019914">
        <ele>5.6</ele>
        <time>2019-07-11T22:03:20Z</time>
      </trkpt>
      <trkpt lat="51.231080811227" lon="4.504994312024">
        <ele>5.6</ele>
        <time>2019-07-11T22:03:27Z</time>
      </trkpt>
      <trkpt lat="51.231022221746" lon="4.505314919699">
        <ele>2.6</ele>
        <time>2019-07-11T22:03:34Z</time>
      </trkpt>
      <trkpt lat="51.230956675288" lon="4.505616416642">
        <ele>3.8</ele>
        <time>2019-07-11T22:03:42Z</time>
      </trkpt>
      <trkpt lat="51.230880651455" lon="4.505876590818">
        <ele>3.8</ele>
        <time>2019-07-11T22:03:48Z</time>
      </trkpt>
      <trkpt lat="51.230779062827" lon="4.506161323961">
        <ele>3</ele>
        <time>2019-07-11T22:03:55Z</time>
      </trkpt>
      <trkpt lat="51.230675965457" lon="4.506494923581">
        <ele>2.2</ele>
        <time>2019-07-11T22:04:02Z</time>
      </trkpt>
      <trkpt lat="51.230525091257" lon="4.507096241087">
        <ele>2.8</ele>
        <time>2019-07-11T22:04:16Z</time>
      </trkpt>
      <trkpt lat="51.230489049087" lon="4.507411316708">
        <ele>2</ele>
        <time>2019-07-11T22:04:23Z</time>
      </trkpt>
      <trkpt lat="51.2304410208" lon="4.507725051225">
        <ele>1.8</ele>
        <time>2019-07-11T22:04:30Z</time>
      </trkpt>
      <trkpt lat="51.230388047192" lon="4.508030990575">
        <ele>3.4</ele>
        <time>2019-07-11T22:04:38Z</time>
      </trkpt>
      <trkpt lat="51.2303320561" lon="4.508320836677">
        <ele>8</ele>
        <time>2019-07-11T22:04:45Z</time>
      </trkpt>
      <trkpt lat="51.230293331722" lon="4.508603390526">
        <ele>9.2</ele>
        <time>2019-07-11T22:04:52Z</time>
      </trkpt>
      <trkpt lat="51.230244632883" lon="4.50889055442">
        <ele>9.6</ele>
        <time>2019-07-11T22:04:59Z</time>
      </trkpt>
      <trkpt lat="51.230187216868" lon="4.509177718314">
        <ele>8.4</ele>
        <time>2019-07-11T22:05:06Z</time>
      </trkpt>
      <trkpt lat="51.230149498318" lon="4.509488938261">
        <ele>8.6</ele>
        <time>2019-07-11T22:05:13Z</time>
      </trkpt>
      <trkpt lat="51.230119323478" lon="4.509799403837">
        <ele>11.2</ele>
        <time>2019-07-11T22:05:19Z</time>
      </trkpt>
      <trkpt lat="51.230030391519" lon="4.510062846954">
        <ele>9.6</ele>
        <time>2019-07-11T22:05:27Z</time>
      </trkpt>
      <trkpt lat="51.229967108174" lon="4.510376246195">
        <ele>9.8</ele>
        <time>2019-07-11T22:05:35Z</time>
      </trkpt>
      <trkpt lat="51.229907596684" lon="4.510677826957">
        <ele>8.4</ele>
        <time>2019-07-11T22:05:43Z</time>
      </trkpt>
      <trkpt lat="51.229870632505" lon="4.51096507467">
        <ele>8.2</ele>
        <time>2019-07-11T22:05:51Z</time>
      </trkpt>
      <trkpt lat="51.229814725232" lon="4.511253244392">
        <ele>9</ele>
        <time>2019-07-11T22:05:57Z</time>
      </trkpt>
      <trkpt lat="51.229736522105" lon="4.511530266187">
        <ele>10</ele>
        <time>2019-07-11T22:06:05Z</time>
      </trkpt>
      <trkpt lat="51.229674831321" lon="4.51187115806">
        <ele>10.2</ele>
        <time>2019-07-11T22:06:12Z</time>
      </trkpt>
      <trkpt lat="51.229631915993" lon="4.51215865723">
        <ele>7.4</ele>
        <time>2019-07-11T22:06:20Z</time>
      </trkpt>
      <trkpt lat="51.22953996655" lon="4.51241598156">
        <ele>6</ele>
        <time>2019-07-11T22:06:27Z</time>
      </trkpt>
      <trkpt lat="51.229466457287" lon="4.512690740242">
        <ele>4.8</ele>
        <time>2019-07-11T22:06:34Z</time>
      </trkpt>
      <trkpt lat="51.229376938595" lon="4.51296667239">
        <ele>2.6</ele>
        <time>2019-07-11T22:06:41Z</time>
      </trkpt>
      <trkpt lat="51.2292927005" lon="4.513266995867">
        <ele>2.2</ele>
        <time>2019-07-11T22:06:47Z</time>
      </trkpt>
      <trkpt lat="51.229210893156" lon="4.513555668503">
        <ele>2.6</ele>
        <time>2019-07-11T22:06:54Z</time>
      </trkpt>
      <trkpt lat="51.229127828527" lon="4.513845430786">
        <ele>4.2</ele>
        <time>2019-07-11T22:07:01Z</time>
      </trkpt>
      <trkpt lat="51.229053648712" lon="4.514125218608">
        <ele>5</ele>
        <time>2019-07-11T22:07:09Z</time>
      </trkpt>
      <trkpt lat="51.228977876336" lon="4.514405341706">
        <ele>3.6</ele>
        <time>2019-07-11T22:07:15Z</time>
      </trkpt>
      <trkpt lat="51.22892138233" lon="4.51471094578">
        <ele>0.8</ele>
        <time>2019-07-11T22:07:22Z</time>
      </trkpt>
      <trkpt lat="51.228863128125" lon="4.515008084135">
        <ele>0</ele>
        <time>2019-07-11T22:07:30Z</time>
      </trkpt>
      <trkpt lat="51.228805293015" lon="4.515315783684">
        <ele>0.8</ele>
        <time>2019-07-11T22:07:37Z</time>
      </trkpt>
      <trkpt lat="51.228749804837" lon="4.515630356391">
        <ele>1</ele>
        <time>2019-07-11T22:07:44Z</time>
      </trkpt>
      <trkpt lat="51.228700267808" lon="4.515923974348">
        <ele>0</ele>
        <time>2019-07-11T22:07:51Z</time>
      </trkpt>
      <trkpt lat="51.228645114906" lon="4.516203510713">
        <ele>0</ele>
        <time>2019-07-11T22:07:58Z</time>
      </trkpt>
      <trkpt lat="51.228592225117" lon="4.516488411494">
        <ele>0</ele>
        <time>2019-07-11T22:08:05Z</time>
      </trkpt>
      <trkpt lat="51.228523996451" lon="4.516799212346">
        <ele>0</ele>
        <time>2019-07-11T22:08:12Z</time>
      </trkpt>
      <trkpt lat="51.228441686193" lon="4.517054944115">
        <ele>0</ele>
        <time>2019-07-11T22:08:17Z</time>
      </trkpt>
      <trkpt lat="51.228355101166" lon="4.517317297585">
        <ele>1</ele>
        <time>2019-07-11T22:08:21Z</time>
      </trkpt>
      <trkpt lat="51.228235491453" lon="4.517637821441">
        <ele>3.4</ele>
        <time>2019-07-11T22:08:28Z</time>
      </trkpt>
      <trkpt lat="51.228091490411" lon="4.517927583724">
        <ele>5.6</ele>
        <time>2019-07-11T22:08:36Z</time>
      </trkpt>
      <trkpt lat="51.227993673638" lon="4.518176107059">
        <ele>5.2</ele>
        <time>2019-07-11T22:08:44Z</time>
      </trkpt>
      <trkpt lat="51.227907256249" lon="4.518463187134">
        <ele>0.4</ele>
        <time>2019-07-11T22:08:53Z</time>
      </trkpt>
      <trkpt lat="51.227816228815" lon="4.518742304404">
        <ele>0</ele>
        <time>2019-07-11T22:09:02Z</time>
      </trkpt>
      <trkpt lat="51.227718914956" lon="4.519023265692">
        <ele>0</ele>
        <time>2019-07-11T22:09:11Z</time>
      </trkpt>
      <trkpt lat="51.227548930024" lon="4.519203057447">
        <ele>1</ele>
        <time>2019-07-11T22:09:18Z</time>
      </trkpt>
      <trkpt lat="51.227393026684" lon="4.519356949131">
        <ele>12.2</ele>
        <time>2019-07-11T22:09:25Z</time>
      </trkpt>
      <trkpt lat="51.227372574848" lon="4.519361726814">
        <ele>14.6</ele>
        <time>2019-07-11T22:09:26Z</time>
      </trkpt>
      <trkpt lat="51.22728439726" lon="4.519088309236">
        <ele>17.6</ele>
        <time>2019-07-11T22:09:32Z</time>
      </trkpt>
      <trkpt lat="51.227127404273" lon="4.518571565101">
        <ele>11.6</ele>
        <time>2019-07-11T22:09:42Z</time>
      </trkpt>
      <trkpt lat="51.227057415408" lon="4.518287837786">
        <ele>8.6</ele>
        <time>2019-07-11T22:09:48Z</time>
      </trkpt>
      <trkpt lat="51.226995473167" lon="4.517999248969">
        <ele>6.8</ele>
        <time>2019-07-11T22:09:55Z</time>
      </trkpt>
      <trkpt lat="51.226932525098" lon="4.517724993201">
        <ele>7</ele>
        <time>2019-07-11T22:10:02Z</time>
      </trkpt>
      <trkpt lat="51.226857842369" lon="4.517441349705">
        <ele>5.8</ele>
        <time>2019-07-11T22:10:09Z</time>
      </trkpt>
      <trkpt lat="51.226801264544" lon="4.517139601305">
        <ele>7.4</ele>
        <time>2019-07-11T22:10:16Z</time>
      </trkpt>
      <trkpt lat="51.226761701976" lon="4.516839864561">
        <ele>7</ele>
        <time>2019-07-11T22:10:23Z</time>
      </trkpt>
      <trkpt lat="51.226714679517" lon="4.516546414242">
        <ele>5.6</ele>
        <time>2019-07-11T22:10:30Z</time>
      </trkpt>
      <trkpt lat="51.226661873547" lon="4.516297220355">
        <ele>5.8</ele>
        <time>2019-07-11T22:10:36Z</time>
      </trkpt>
      <trkpt lat="51.22660881612" lon="4.515969739522">
        <ele>8.2</ele>
        <time>2019-07-11T22:10:45Z</time>
      </trkpt>
      <trkpt lat="51.226539665445" lon="4.515632787142">
        <ele>8.8</ele>
        <time>2019-07-11T22:10:53Z</time>
      </trkpt>
      <trkpt lat="51.226471269141" lon="4.515354340424">
        <ele>9.2</ele>
        <time>2019-07-11T22:11:00Z</time>
      </trkpt>
      <trkpt lat="51.226381582811" lon="4.515055944784">
        <ele>8.8</ele>
        <time>2019-07-11T22:11:08Z</time>
      </trkpt>
      <trkpt lat="51.226296338888" lon="4.514719243861">
        <ele>8.4</ele>
        <time>2019-07-11T22:11:14Z</time>
      </trkpt>
      <trkpt lat="51.226233809914" lon="4.514363013111">
        <ele>6.8</ele>
        <time>2019-07-11T22:11:22Z</time>
      </trkpt>
      <trkpt lat="51.226169269284" lon="4.514063444005">
        <ele>5.4</ele>
        <time>2019-07-11T22:11:30Z</time>
      </trkpt>
      <trkpt lat="51.226113781106" lon="4.51376882022">
        <ele>5.6</ele>
        <time>2019-07-11T22:11:37Z</time>
      </trkpt>
      <trkpt lat="51.226117469142" lon="4.513482913611">
        <ele>5.8</ele>
        <time>2019-07-11T22:11:44Z</time>
      </trkpt>
      <trkpt lat="51.226102716998" lon="4.513141351186">
        <ele>6.2</ele>
        <time>2019-07-11T22:11:51Z</time>
      </trkpt>
      <trkpt lat="51.226057706195" lon="4.512854522568">
        <ele>5</ele>
        <time>2019-07-11T22:11:59Z</time>
      </trkpt>
      <trkpt lat="51.225993752298" lon="4.512545481915">
        <ele>6.6</ele>
        <time>2019-07-11T22:12:07Z</time>
      </trkpt>
      <trkpt lat="51.225935078998" lon="4.512258737116">
        <ele>7.2</ele>
        <time>2019-07-11T22:12:13Z</time>
      </trkpt>
      <trkpt lat="51.225867772341" lon="4.511976937638">
        <ele>6.6</ele>
        <time>2019-07-11T22:12:21Z</time>
      </trkpt>
      <trkpt lat="51.225809937231" lon="4.511697485092">
        <ele>7.2</ele>
        <time>2019-07-11T22:12:28Z</time>
      </trkpt>
      <trkpt lat="51.225746653886" lon="4.511410824112">
        <ele>9.2</ele>
        <time>2019-07-11T22:12:35Z</time>
      </trkpt>
      <trkpt lat="51.225671552062" lon="4.511148135366">
        <ele>10.2</ele>
        <time>2019-07-11T22:12:41Z</time>
      </trkpt>
      <trkpt lat="51.225615309513" lon="4.510873963417">
        <ele>9</ele>
        <time>2019-07-11T22:12:49Z</time>
      </trkpt>
      <trkpt lat="51.225543644268" lon="4.510602473676">
        <ele>8.2</ele>
        <time>2019-07-11T22:12:56Z</time>
      </trkpt>
      <trkpt lat="51.225485809158" lon="4.510309945366">
        <ele>8.4</ele>
        <time>2019-07-11T22:13:03Z</time>
      </trkpt>
      <trkpt lat="51.225431829722" lon="4.510029989906">
        <ele>7.6</ele>
        <time>2019-07-11T22:13:10Z</time>
      </trkpt>
      <trkpt lat="51.225387489471" lon="4.509735785216">
        <ele>7.2</ele>
        <time>2019-07-11T22:13:17Z</time>
      </trkpt>
      <trkpt lat="51.225337198071" lon="4.509430851694">
        <ele>4.6</ele>
        <time>2019-07-11T22:13:23Z</time>
      </trkpt>
      <trkpt lat="51.225288331594" lon="4.509128768018">
        <ele>3.6</ele>
        <time>2019-07-11T22:13:30Z</time>
      </trkpt>
      <trkpt lat="51.225244745714" lon="4.508828025446">
        <ele>3.4</ele>
        <time>2019-07-11T22:13:37Z</time>
      </trkpt>
      <trkpt lat="51.225174337754" lon="4.508546393606">
        <ele>4.4</ele>
        <time>2019-07-11T22:13:45Z</time>
      </trkpt>
      <trkpt lat="51.225115748273" lon="4.508247495052">
        <ele>4.6</ele>
        <time>2019-07-11T22:13:52Z</time>
      </trkpt>
      <trkpt lat="51.225061349742" lon="4.507908950111">
        <ele>3.4</ele>
        <time>2019-07-11T22:13:59Z</time>
      </trkpt>
      <trkpt lat="51.225003514632" lon="4.507618433457">
        <ele>2.2</ele>
        <time>2019-07-11T22:14:07Z</time>
      </trkpt>
      <trkpt lat="51.224947355902" lon="4.507317020333">
        <ele>2.2</ele>
        <time>2019-07-11T22:14:14Z</time>
      </trkpt>
      <trkpt lat="51.224891867724" lon="4.506971183139">
        <ele>1.8</ele>
        <time>2019-07-11T22:14:21Z</time>
      </trkpt>
      <trkpt lat="51.224839061754" lon="4.506677984277">
        <ele>1.8</ele>
        <time>2019-07-11T22:14:28Z</time>
      </trkpt>
      <trkpt lat="51.224823555239" lon="4.506382187026">
        <ele>3.2</ele>
        <time>2019-07-11T22:14:37Z</time>
      </trkpt>
      <trkpt lat="51.224733952728" lon="4.506059735333">
        <ele>3.8</ele>
        <time>2019-07-11T22:14:45Z</time>
      </trkpt>
      <trkpt lat="51.224677877817" lon="4.505739630572">
        <ele>3</ele>
        <time>2019-07-11T22:14:53Z</time>
      </trkpt>
      <trkpt lat="51.224621299992" lon="4.505456741447">
        <ele>2.6</ele>
        <time>2019-07-11T22:15:01Z</time>
      </trkpt>
      <trkpt lat="51.224516358604" lon="4.50495944332">
        <ele>1.8</ele>
        <time>2019-07-11T22:15:13Z</time>
      </trkpt>
      <trkpt lat="51.224445112454" lon="4.504613857583">
        <ele>2.4</ele>
        <time>2019-07-11T22:15:20Z</time>
      </trkpt>
      <trkpt lat="51.224382499661" lon="4.504335746141">
        <ele>2.6</ele>
        <time>2019-07-11T22:15:27Z</time>
      </trkpt>
      <trkpt lat="51.224312594615" lon="4.504040954718">
        <ele>2.2</ele>
        <time>2019-07-11T22:15:35Z</time>
      </trkpt>
      <trkpt lat="51.224258866636" lon="4.503764603475">
        <ele>2.4</ele>
        <time>2019-07-11T22:15:42Z</time>
      </trkpt>
      <trkpt lat="51.224197846404" lon="4.503432093502">
        <ele>2.6</ele>
        <time>2019-07-11T22:15:50Z</time>
      </trkpt>
      <trkpt lat="51.224134814516" lon="4.50313805645">
        <ele>2.4</ele>
        <time>2019-07-11T22:15:57Z</time>
      </trkpt>
      <trkpt lat="51.224073794284" lon="4.50284133719">
        <ele>2.2</ele>
        <time>2019-07-11T22:16:04Z</time>
      </trkpt>
      <trkpt lat="51.224029789309" lon="4.502551574907">
        <ele>2.4</ele>
        <time>2019-07-11T22:16:11Z</time>
      </trkpt>
      <trkpt lat="51.223971199828" lon="4.502263489004">
        <ele>1.6</ele>
        <time>2019-07-11T22:16:18Z</time>
      </trkpt>
      <trkpt lat="51.223906910655" lon="4.501929218832">
        <ele>1</ele>
        <time>2019-07-11T22:16:26Z</time>
      </trkpt>
      <trkpt lat="51.223853098857" lon="4.501638450721">
        <ele>1.4</ele>
        <time>2019-07-11T22:16:34Z</time>
      </trkpt>
      <trkpt lat="51.223776655929" lon="4.501350448637">
        <ele>2.6</ele>
        <time>2019-07-11T22:16:40Z</time>
      </trkpt>
      <trkpt lat="51.223697949888" lon="4.501023554537">
        <ele>3.8</ele>
        <time>2019-07-11T22:16:48Z</time>
      </trkpt>
      <trkpt lat="51.223637348751" lon="4.500713424237">
        <ele>4.2</ele>
        <time>2019-07-11T22:16:55Z</time>
      </trkpt>
      <trkpt lat="51.223585129514" lon="4.500400192634">
        <ele>3.6</ele>
        <time>2019-07-11T22:17:02Z</time>
      </trkpt>
      <trkpt lat="51.223527462042" lon="4.500036082898">
        <ele>3.8</ele>
        <time>2019-07-11T22:17:10Z</time>
      </trkpt>
      <trkpt lat="51.223461328851" lon="4.499721258734">
        <ele>2.4</ele>
        <time>2019-07-11T22:17:18Z</time>
      </trkpt>
      <trkpt lat="51.223397877868" lon="4.499421689628">
        <ele>1.4</ele>
        <time>2019-07-11T22:17:25Z</time>
      </trkpt>
      <trkpt lat="51.223343646975" lon="4.499127233481">
        <ele>1.2</ele>
        <time>2019-07-11T22:17:32Z</time>
      </trkpt>
      <trkpt lat="51.22329042191" lon="4.498851133695">
        <ele>1.6</ele>
        <time>2019-07-11T22:17:39Z</time>
      </trkpt>
      <trkpt lat="51.223236274836" lon="4.498560281765">
        <ele>1</ele>
        <time>2019-07-11T22:17:46Z</time>
      </trkpt>
      <trkpt lat="51.223180283744" lon="4.498262556677">
        <ele>0</ele>
        <time>2019-07-11T22:17:53Z</time>
      </trkpt>
      <trkpt lat="51.223123454462" lon="4.497985786339">
        <ele>0.2</ele>
        <time>2019-07-11T22:18:00Z</time>
      </trkpt>
      <trkpt lat="51.223054639063" lon="4.497711111476">
        <ele>0.2</ele>
        <time>2019-07-11T22:18:07Z</time>
      </trkpt>
      <trkpt lat="51.222979704877" lon="4.49745009911">
        <ele>0</ele>
        <time>2019-07-11T22:18:14Z</time>
      </trkpt>
      <trkpt lat="51.222936621911" lon="4.497169389279">
        <ele>1.6</ele>
        <time>2019-07-11T22:18:21Z</time>
      </trkpt>
      <trkpt lat="51.222884318855" lon="4.496875855141">
        <ele>3.2</ele>
        <time>2019-07-11T22:18:28Z</time>
      </trkpt>
      <trkpt lat="51.222837715491" lon="4.496575280207">
        <ele>3.6</ele>
        <time>2019-07-11T22:18:35Z</time>
      </trkpt>
      <trkpt lat="51.222779042191" lon="4.496272023065">
        <ele>4.6</ele>
        <time>2019-07-11T22:18:42Z</time>
      </trkpt>
      <trkpt lat="51.222718105778" lon="4.495998773125">
        <ele>4</ele>
        <time>2019-07-11T22:18:49Z</time>
      </trkpt>
      <trkpt lat="51.222654319519" lon="4.495717644199">
        <ele>2.8</ele>
        <time>2019-07-11T22:18:56Z</time>
      </trkpt>
      <trkpt lat="51.222581229351" lon="4.495415225247">
        <ele>0.8</ele>
        <time>2019-07-11T22:19:04Z</time>
      </trkpt>
      <trkpt lat="51.222509396468" lon="4.495123116032">
        <ele>2</ele>
        <time>2019-07-11T22:19:12Z</time>
      </trkpt>
      <trkpt lat="51.222436390119" lon="4.494821702908">
        <ele>2.8</ele>
        <time>2019-07-11T22:19:20Z</time>
      </trkpt>
      <trkpt lat="51.222369586376" lon="4.494521630888">
        <ele>4.2</ele>
        <time>2019-07-11T22:19:28Z</time>
      </trkpt>
      <trkpt lat="51.222301441529" lon="4.494215104805">
        <ele>4.8</ele>
        <time>2019-07-11T22:19:36Z</time>
      </trkpt>
      <trkpt lat="51.222252323595" lon="4.493913440224">
        <ele>4.2</ele>
        <time>2019-07-11T22:19:44Z</time>
      </trkpt>
      <trkpt lat="51.222195997227" lon="4.493605992132">
        <ele>5</ele>
        <time>2019-07-11T22:19:52Z</time>
      </trkpt>
      <trkpt lat="51.222135479909" lon="4.493333496563">
        <ele>4.6</ele>
        <time>2019-07-11T22:19:59Z</time>
      </trkpt>
      <trkpt lat="51.222074627315" lon="4.493039459511">
        <ele>5</ele>
        <time>2019-07-11T22:20:07Z</time>
      </trkpt>
      <trkpt lat="51.222019558232" lon="4.492727401374">
        <ele>4.8</ele>
        <time>2019-07-11T22:20:15Z</time>
      </trkpt>
      <trkpt lat="51.221967841909" lon="4.492447362095">
        <ele>4.6</ele>
        <time>2019-07-11T22:20:22Z</time>
      </trkpt>
      <trkpt lat="51.221911012627" lon="4.492173022508">
        <ele>5.4</ele>
        <time>2019-07-11T22:20:29Z</time>
      </trkpt>
      <trkpt lat="51.221856530277" lon="4.491882673492">
        <ele>4.8</ele>
        <time>2019-07-11T22:20:36Z</time>
      </trkpt>
      <trkpt lat="51.221728203388" lon="4.49133885582">
        <ele>5.4</ele>
        <time>2019-07-11T22:20:50Z</time>
      </trkpt>
      <trkpt lat="51.22166265693" lon="4.491046578967">
        <ele>6</ele>
        <time>2019-07-11T22:20:57Z</time>
      </trkpt>
      <trkpt lat="51.221613790453" lon="4.490760337082">
        <ele>7.2</ele>
        <time>2019-07-11T22:21:04Z</time>
      </trkpt>
      <trkpt lat="51.221548327814" lon="4.490460181243">
        <ele>7.6</ele>
        <time>2019-07-11T22:21:11Z</time>
      </trkpt>
      <trkpt lat="51.221488397229" lon="4.490155582997">
        <ele>6.6</ele>
        <time>2019-07-11T22:21:18Z</time>
      </trkpt>
      <trkpt lat="51.221425281522" lon="4.489852074398">
        <ele>5.2</ele>
        <time>2019-07-11T22:21:25Z</time>
      </trkpt>
      <trkpt lat="51.221373062285" lon="4.489543117564">
        <ele>5</ele>
        <time>2019-07-11T22:21:32Z</time>
      </trkpt>
      <trkpt lat="51.221309946578" lon="4.489255031661">
        <ele>4.6</ele>
        <time>2019-07-11T22:21:39Z</time>
      </trkpt>
      <trkpt lat="51.221262337386" lon="4.488954037632">
        <ele>3.6</ele>
        <time>2019-07-11T22:21:46Z</time>
      </trkpt>
      <trkpt lat="51.221179105119" lon="4.488664694444">
        <ele>4.4</ele>
        <time>2019-07-11T22:21:53Z</time>
      </trkpt>
      <trkpt lat="51.221118755439" lon="4.48837753055">
        <ele>5</ele>
        <time>2019-07-11T22:22:00Z</time>
      </trkpt>
      <trkpt lat="51.22105580737" lon="4.488074608684">
        <ele>5.6</ele>
        <time>2019-07-11T22:22:07Z</time>
      </trkpt>
      <trkpt lat="51.220987578704" lon="4.487799514726">
        <ele>7.2</ele>
        <time>2019-07-11T22:22:14Z</time>
      </trkpt>
      <trkpt lat="51.220938628408" lon="4.487495251756">
        <ele>8.2</ele>
        <time>2019-07-11T22:22:22Z</time>
      </trkpt>
      <trkpt lat="51.220895545442" lon="4.487215883029">
        <ele>7</ele>
        <time>2019-07-11T22:22:29Z</time>
      </trkpt>
      <trkpt lat="51.220837458875" lon="4.486927042755">
        <ele>6.2</ele>
        <time>2019-07-11T22:22:37Z</time>
      </trkpt>
      <trkpt lat="51.220775768091" lon="4.486613475876">
        <ele>6</ele>
        <time>2019-07-11T22:22:45Z</time>
      </trkpt>
      <trkpt lat="51.220707204149" lon="4.48632564143">
        <ele>6.6</ele>
        <time>2019-07-11T22:22:52Z</time>
      </trkpt>
      <trkpt lat="51.220643334071" lon="4.48603814226">
        <ele>8.6</ele>
        <time>2019-07-11T22:22:59Z</time>
      </trkpt>
      <trkpt lat="51.220591701567" lon="4.485740500991">
        <ele>9.2</ele>
        <time>2019-07-11T22:23:06Z</time>
      </trkpt>
      <trkpt lat="51.220514839544" lon="4.48545895297">
        <ele>11.2</ele>
        <time>2019-07-11T22:23:13Z</time>
      </trkpt>
      <trkpt lat="51.220440995005" lon="4.485155025276">
        <ele>11</ele>
        <time>2019-07-11T22:23:20Z</time>
      </trkpt>
      <trkpt lat="51.220388440492" lon="4.484841374578">
        <ele>9.8</ele>
        <time>2019-07-11T22:23:27Z</time>
      </trkpt>
      <trkpt lat="51.220332533219" lon="4.484565358611">
        <ele>9.6</ele>
        <time>2019-07-11T22:23:33Z</time>
      </trkpt>
      <trkpt lat="51.220280313982" lon="4.484246511135">
        <ele>11.2</ele>
        <time>2019-07-11T22:23:41Z</time>
      </trkpt>
      <trkpt lat="51.22022516108" lon="4.483956581214">
        <ele>12.6</ele>
        <time>2019-07-11T22:23:48Z</time>
      </trkpt>
      <trkpt lat="51.22017654606" lon="4.483645361267">
        <ele>9.6</ele>
        <time>2019-07-11T22:23:55Z</time>
      </trkpt>
      <trkpt lat="51.22011954914" lon="4.483364902893">
        <ele>8.4</ele>
        <time>2019-07-11T22:24:02Z</time>
      </trkpt>
      <trkpt lat="51.220066491713" lon="4.48307681699">
        <ele>7.6</ele>
        <time>2019-07-11T22:24:09Z</time>
      </trkpt>
      <trkpt lat="51.220004130377" lon="4.482783282852">
        <ele>7.6</ele>
        <time>2019-07-11T22:24:16Z</time>
      </trkpt>
      <trkpt lat="51.219944786525" lon="4.48250684779">
        <ele>7.8</ele>
        <time>2019-07-11T22:24:23Z</time>
      </trkpt>
      <trkpt lat="51.219883766293" lon="4.482214403299">
        <ele>8.2</ele>
        <time>2019-07-11T22:24:30Z</time>
      </trkpt>
      <trkpt lat="51.219817381645" lon="4.481938722608">
        <ele>9.4</ele>
        <time>2019-07-11T22:24:36Z</time>
      </trkpt>
      <trkpt lat="51.219745045848" lon="4.481643679728">
        <ele>10.4</ele>
        <time>2019-07-11T22:24:43Z</time>
      </trkpt>
      <trkpt lat="51.219664076694" lon="4.481379230783">
        <ele>11.2</ele>
        <time>2019-07-11T22:24:50Z</time>
      </trkpt>
      <trkpt lat="51.219627783067" lon="4.481063316972">
        <ele>9.8</ele>
        <time>2019-07-11T22:24:57Z</time>
      </trkpt>
      <trkpt lat="51.219611270724" lon="4.480747067885">
        <ele>8.8</ele>
        <time>2019-07-11T22:25:04Z</time>
      </trkpt>
      <trkpt lat="51.219554776718" lon="4.48047256066">
        <ele>9</ele>
        <time>2019-07-11T22:25:11Z</time>
      </trkpt>
      <trkpt lat="51.219482608559" lon="4.480196712331">
        <ele>9.2</ele>
        <time>2019-07-11T22:25:18Z</time>
      </trkpt>
      <trkpt lat="51.219418319386" lon="4.479892114085">
        <ele>9.2</ele>
        <time>2019-07-11T22:25:25Z</time>
      </trkpt>
      <trkpt lat="51.219354784584" lon="4.479604028182">
        <ele>7.6</ele>
        <time>2019-07-11T22:25:32Z</time>
      </trkpt>
      <trkpt lat="51.219300805148" lon="4.479331532613">
        <ele>7.8</ele>
        <time>2019-07-11T22:25:39Z</time>
      </trkpt>
      <trkpt lat="51.219237605622" lon="4.479042105606">
        <ele>9</ele>
        <time>2019-07-11T22:25:46Z</time>
      </trkpt>
      <trkpt lat="51.2191506015" lon="4.478744631975">
        <ele>10.6</ele>
        <time>2019-07-11T22:25:53Z</time>
      </trkpt>
      <trkpt lat="51.21908438449" lon="4.478466352895">
        <ele>12.4</ele>
        <time>2019-07-11T22:25:59Z</time>
      </trkpt>
      <trkpt lat="51.219015904367" lon="4.478198718828">
        <ele>13.4</ele>
        <time>2019-07-11T22:26:05Z</time>
      </trkpt>
      <trkpt lat="51.218937198326" lon="4.477768140625">
        <ele>14.4</ele>
        <time>2019-07-11T22:26:15Z</time>
      </trkpt>
      <trkpt lat="51.218887158383" lon="4.477451388624">
        <ele>12</ele>
        <time>2019-07-11T22:26:22Z</time>
      </trkpt>
      <trkpt lat="51.218856229172" lon="4.477160536694">
        <ele>11</ele>
        <time>2019-07-11T22:26:29Z</time>
      </trkpt>
      <trkpt lat="51.218838291906" lon="4.476848730014">
        <ele>9.6</ele>
        <time>2019-07-11T22:26:37Z</time>
      </trkpt>
      <trkpt lat="51.21884801491" lon="4.476540443732">
        <ele>8.8</ele>
        <time>2019-07-11T22:26:44Z</time>
      </trkpt>
      <trkpt lat="51.218869640212" lon="4.476248669793">
        <ele>10.2</ele>
        <time>2019-07-11T22:26:51Z</time>
      </trkpt>
      <trkpt lat="51.21888740984" lon="4.47594633466">
        <ele>10.4</ele>
        <time>2019-07-11T22:26:59Z</time>
      </trkpt>
      <trkpt lat="51.218913058454" lon="4.475650705047">
        <ele>11.2</ele>
        <time>2019-07-11T22:27:07Z</time>
      </trkpt>
      <trkpt lat="51.218991261581" lon="4.475351052122">
        <ele>7.8</ele>
        <time>2019-07-11T22:27:15Z</time>
      </trkpt>
      <trkpt lat="51.219037362031" lon="4.475028013696">
        <ele>5.2</ele>
        <time>2019-07-11T22:27:23Z</time>
      </trkpt>
      <trkpt lat="51.219074242391" lon="4.474745459847">
        <ele>4.8</ele>
        <time>2019-07-11T22:27:30Z</time>
      </trkpt>
      <trkpt lat="51.219099052815" lon="4.474454021184">
        <ele>6.4</ele>
        <time>2019-07-11T22:27:37Z</time>
      </trkpt>
      <trkpt lat="51.2191338377" lon="4.474155625544">
        <ele>9.8</ele>
        <time>2019-07-11T22:27:45Z</time>
      </trkpt>
      <trkpt lat="51.219170885698" lon="4.473839879371">
        <ele>13.2</ele>
        <time>2019-07-11T22:27:54Z</time>
      </trkpt>
      <trkpt lat="51.219210448266" lon="4.473521953904">
        <ele>15.6</ele>
        <time>2019-07-11T22:28:02Z</time>
      </trkpt>
      <trkpt lat="51.219279515122" lon="4.473240070607">
        <ele>12.4</ele>
        <time>2019-07-11T22:28:09Z</time>
      </trkpt>
      <trkpt lat="51.219349336349" lon="4.472953409627">
        <ele>9</ele>
        <time>2019-07-11T22:28:16Z</time>
      </trkpt>
      <trkpt lat="51.21940038212" lon="4.472646212992">
        <ele>8</ele>
        <time>2019-07-11T22:28:23Z</time>
      </trkpt>
      <trkpt lat="51.219432652435" lon="4.472342201479">
        <ele>9.4</ele>
        <time>2019-07-11T22:28:30Z</time>
      </trkpt>
      <trkpt lat="51.219493337391" lon="4.472055037585">
        <ele>11.4</ele>
        <time>2019-07-11T22:28:37Z</time>
      </trkpt>
      <trkpt lat="51.21954371261" lon="4.471778351066">
        <ele>14</ele>
        <time>2019-07-11T22:28:44Z</time>
      </trkpt>
      <trkpt lat="51.219580090056" lon="4.471478027589">
        <ele>16.2</ele>
        <time>2019-07-11T22:28:52Z</time>
      </trkpt>
      <trkpt lat="51.219621915737" lon="4.471199161776">
        <ele>15.8</ele>
        <time>2019-07-11T22:29:00Z</time>
      </trkpt>
      <trkpt lat="51.219670949852" lon="4.470902191059">
        <ele>16</ele>
        <time>2019-07-11T22:29:08Z</time>
      </trkpt>
      <trkpt lat="51.219734317016" lon="4.470628270567">
        <ele>15</ele>
        <time>2019-07-11T22:29:15Z</time>
      </trkpt>
      <trkpt lat="51.21979433142" lon="4.470322331217">
        <ele>16.8</ele>
        <time>2019-07-11T22:29:23Z</time>
      </trkpt>
      <trkpt lat="51.219839677499" lon="4.470023600301">
        <ele>17.2</ele>
        <time>2019-07-11T22:29:30Z</time>
      </trkpt>
      <trkpt lat="51.219889549804" lon="4.469707099757">
        <ele>17.6</ele>
        <time>2019-07-11T22:29:38Z</time>
      </trkpt>
      <trkpt lat="51.219947217276" lon="4.469431754342">
        <ele>18.4</ele>
        <time>2019-07-11T22:29:45Z</time>
      </trkpt>
      <trkpt lat="51.219997424857" lon="4.469143668439">
        <ele>17.6</ele>
        <time>2019-07-11T22:29:52Z</time>
      </trkpt>
      <trkpt lat="51.220034724312" lon="4.468842925867">
        <ele>15.2</ele>
        <time>2019-07-11T22:29:58Z</time>
      </trkpt>
      <trkpt lat="51.220079651296" lon="4.468546206607">
        <ele>13.2</ele>
        <time>2019-07-11T22:30:05Z</time>
      </trkpt>
      <trkpt lat="51.220089122843" lon="4.468226018027">
        <ele>10.6</ele>
        <time>2019-07-11T22:30:12Z</time>
      </trkpt>
      <trkpt lat="51.220076549993" lon="4.467904236886">
        <ele>9.2</ele>
        <time>2019-07-11T22:30:19Z</time>
      </trkpt>
      <trkpt lat="51.220088368472" lon="4.467580863184">
        <ele>7.4</ele>
        <time>2019-07-11T22:30:26Z</time>
      </trkpt>
      <trkpt lat="51.22007763964" lon="4.467262350984">
        <ele>9.2</ele>
        <time>2019-07-11T22:30:33Z</time>
      </trkpt>
      <trkpt lat="51.220073783966" lon="4.466959429118">
        <ele>9.6</ele>
        <time>2019-07-11T22:30:40Z</time>
      </trkpt>
      <trkpt lat="51.220074119242" lon="4.466668828645">
        <ele>9.2</ele>
        <time>2019-07-11T22:30:47Z</time>
      </trkpt>
      <trkpt lat="51.220081411495" lon="4.466347550418">
        <ele>8.6</ele>
        <time>2019-07-11T22:30:55Z</time>
      </trkpt>
      <trkpt lat="51.220171181644" lon="4.46609341121">
        <ele>8.4</ele>
        <time>2019-07-11T22:31:04Z</time>
      </trkpt>
      <trkpt lat="51.220361953688" lon="4.466069774252">
        <ele>7.2</ele>
        <time>2019-07-11T22:31:13Z</time>
      </trkpt>
      <trkpt lat="51.220556749044" lon="4.466082430921">
        <ele>8.4</ele>
        <time>2019-07-11T22:31:22Z</time>
      </trkpt>
      <trkpt lat="51.220752298771" lon="4.466071366813">
        <ele>9.2</ele>
        <time>2019-07-11T22:31:30Z</time>
      </trkpt>
      <trkpt lat="51.220937119666" lon="4.466053094271">
        <ele>12</ele>
        <time>2019-07-11T22:31:39Z</time>
      </trkpt>
      <trkpt lat="51.221118503982" lon="4.46605736904">
        <ele>11.8</ele>
        <time>2019-07-11T22:31:47Z</time>
      </trkpt>
      <trkpt lat="51.221133172307" lon="4.466046556389">
        <ele>11.8</ele>
        <time>2019-07-11T22:31:48Z</time>
      </trkpt>
      <trkpt lat="51.221150187564" lon="4.466023673802">
        <ele>11</ele>
        <time>2019-07-11T22:31:50Z</time>
      </trkpt>
      <trkpt lat="51.22119913786" lon="4.465708095267">
        <ele>11.6</ele>
        <time>2019-07-11T22:31:58Z</time>
      </trkpt>
      <trkpt lat="51.221270467829" lon="4.465307691904">
        <ele>11.6</ele>
        <time>2019-07-11T22:32:07Z</time>
      </trkpt>
      <trkpt lat="51.221311371501" lon="4.465013906309">
        <ele>10.6</ele>
        <time>2019-07-11T22:32:14Z</time>
      </trkpt>
      <trkpt lat="51.221347665128" lon="4.464709308063">
        <ele>11.2</ele>
        <time>2019-07-11T22:32:22Z</time>
      </trkpt>
      <trkpt lat="51.221365853851" lon="4.46442038397">
        <ele>14.4</ele>
        <time>2019-07-11T22:32:30Z</time>
      </trkpt>
      <trkpt lat="51.221391418646" lon="4.464128442393">
        <ele>19.6</ele>
        <time>2019-07-11T22:32:38Z</time>
      </trkpt>
      <trkpt lat="51.221387060058" lon="4.463826526355">
        <ele>23.8</ele>
        <time>2019-07-11T22:32:46Z</time>
      </trkpt>
      <trkpt lat="51.221387562972" lon="4.463537266986">
        <ele>25.4</ele>
        <time>2019-07-11T22:32:54Z</time>
      </trkpt>
      <trkpt lat="51.221409355912" lon="4.463239877174">
        <ele>25.4</ele>
        <time>2019-07-11T22:33:02Z</time>
      </trkpt>
      <trkpt lat="51.221438524924" lon="4.462943325552">
        <ele>25</ele>
        <time>2019-07-11T22:33:10Z</time>
      </trkpt>
      <trkpt lat="51.221465598461" lon="4.462646941568">
        <ele>25.2</ele>
        <time>2019-07-11T22:33:18Z</time>
      </trkpt>
      <trkpt lat="51.221483871003" lon="4.462408392694">
        <ele>12</ele>
        <time>2019-07-11T22:33:24Z</time>
      </trkpt>
      <trkpt lat="51.221513123834" lon="4.462419540621">
        <ele>11</ele>
        <time>2019-07-11T22:33:26Z</time>
      </trkpt>
      <trkpt lat="51.221611862616" lon="4.462500174499">
        <ele>10.4</ele>
        <time>2019-07-11T22:33:32Z</time>
      </trkpt>
      <trkpt lat="51.221644049112" lon="4.462522135077">
        <ele>10.4</ele>
        <time>2019-07-11T22:33:34Z</time>
      </trkpt>
      <trkpt lat="51.22182945674" lon="4.462585502241">
        <ele>12.6</ele>
        <time>2019-07-11T22:33:42Z</time>
      </trkpt>
      <trkpt lat="51.221958621819" lon="4.462693042018">
        <ele>15.2</ele>
        <time>2019-07-11T22:33:49Z</time>
      </trkpt>
      <trkpt lat="51.222143945628" lon="4.462607379">
        <ele>12.8</ele>
        <time>2019-07-11T22:33:56Z</time>
      </trkpt>
      <trkpt lat="51.22232231246" lon="4.462507550571">
        <ele>11</ele>
        <time>2019-07-11T22:34:03Z</time>
      </trkpt>
      <trkpt lat="51.222496153066" lon="4.462358688027">
        <ele>8</ele>
        <time>2019-07-11T22:34:10Z</time>
      </trkpt>
      <trkpt lat="51.222649960931" lon="4.462224745265">
        <ele>8</ele>
        <time>2019-07-11T22:34:20Z</time>
      </trkpt>
      <trkpt lat="51.222845175382" lon="4.462112511624">
        <ele>8.4</ele>
        <time>2019-07-11T22:34:29Z</time>
      </trkpt>
      <trkpt lat="51.223039886919" lon="4.462013605204">
        <ele>9.6</ele>
        <time>2019-07-11T22:34:37Z</time>
      </trkpt>
      <trkpt lat="51.223208614566" lon="4.461854600561">
        <ele>8.4</ele>
        <time>2019-07-11T22:34:45Z</time>
      </trkpt>
      <trkpt lat="51.223366948657" lon="4.461738595065">
        <ele>0.2</ele>
        <time>2019-07-11T22:34:52Z</time>
      </trkpt>
      <trkpt lat="51.22353098244" lon="4.461612782746">
        <ele>0</ele>
        <time>2019-07-11T22:35:02Z</time>
      </trkpt>
      <trkpt lat="51.223708511082" lon="4.461460986537">
        <ele>0</ele>
        <time>2019-07-11T22:35:09Z</time>
      </trkpt>
      <trkpt lat="51.223893164339" lon="4.46131237545">
        <ele>0</ele>
        <time>2019-07-11T22:35:14Z</time>
      </trkpt>
      <trkpt lat="51.224100784002" lon="4.46122268912">
        <ele>0</ele>
        <time>2019-07-11T22:35:19Z</time>
      </trkpt>
      <trkpt lat="51.224266242708" lon="4.461077933707">
        <ele>0</ele>
        <time>2019-07-11T22:35:25Z</time>
      </trkpt>
      <trkpt lat="51.224448549033" lon="4.460982463866">
        <ele>0</ele>
        <time>2019-07-11T22:35:31Z</time>
      </trkpt>
      <trkpt lat="51.224628508426" lon="4.460818597721">
        <ele>0</ele>
        <time>2019-07-11T22:35:38Z</time>
      </trkpt>
      <trkpt lat="51.224839983763" lon="4.460681469837">
        <ele>0</ele>
        <time>2019-07-11T22:35:45Z</time>
      </trkpt>
      <trkpt lat="51.225034946757" lon="4.460531266189">
        <ele>0</ele>
        <time>2019-07-11T22:35:52Z</time>
      </trkpt>
      <trkpt lat="51.225212223942" lon="4.460413668132">
        <ele>0</ele>
        <time>2019-07-11T22:36:00Z</time>
      </trkpt>
      <trkpt lat="51.225379442847" lon="4.460286347071">
        <ele>0</ele>
        <time>2019-07-11T22:36:06Z</time>
      </trkpt>
      <trkpt lat="51.225546913209" lon="4.46012130746">
        <ele>0</ele>
        <time>2019-07-11T22:36:15Z</time>
      </trkpt>
      <trkpt lat="51.22571279101" lon="4.459992310019">
        <ele>1.4</ele>
        <time>2019-07-11T22:36:24Z</time>
      </trkpt>
      <trkpt lat="51.225904149787" lon="4.459905808811">
        <ele>0</ele>
        <time>2019-07-11T22:36:32Z</time>
      </trkpt>
      <trkpt lat="51.226096598211" lon="4.459819056146">
        <ele>0</ele>
        <time>2019-07-11T22:36:39Z</time>
      </trkpt>
      <trkpt lat="51.226126689232" lon="4.459795754464">
        <ele>0</ele>
        <time>2019-07-11T22:36:40Z</time>
      </trkpt>
      <trkpt lat="51.226302290037" lon="4.4596988597">
        <ele>0</ele>
        <time>2019-07-11T22:36:46Z</time>
      </trkpt>
      <trkpt lat="51.226473448435" lon="4.459560474531">
        <ele>0</ele>
        <time>2019-07-11T22:36:54Z</time>
      </trkpt>
      <trkpt lat="51.226662963194" lon="4.459429633072">
        <ele>0</ele>
        <time>2019-07-11T22:37:03Z</time>
      </trkpt>
      <trkpt lat="51.226841665302" lon="4.459311196825">
        <ele>0</ele>
        <time>2019-07-11T22:37:08Z</time>
      </trkpt>
      <trkpt lat="51.227044926377" lon="4.459136015115">
        <ele>0</ele>
        <time>2019-07-11T22:37:16Z</time>
      </trkpt>
      <trkpt lat="51.227229747272" lon="4.459018333239">
        <ele>0</ele>
        <time>2019-07-11T22:37:23Z</time>
      </trkpt>
      <trkpt lat="51.227414903443" lon="4.458901489553">
        <ele>3.8</ele>
        <time>2019-07-11T22:37:31Z</time>
      </trkpt>
      <trkpt lat="51.227632078472" lon="4.458802164038">
        <ele>6.6</ele>
        <time>2019-07-11T22:37:38Z</time>
      </trkpt>
      <trkpt lat="51.227848080035" lon="4.458663275955">
        <ele>3.2</ele>
        <time>2019-07-11T22:37:46Z</time>
      </trkpt>
      <trkpt lat="51.228094172619" lon="4.458526064252">
        <ele>3.2</ele>
        <time>2019-07-11T22:37:56Z</time>
      </trkpt>
      <trkpt lat="51.228264157551" lon="4.458410058756">
        <ele>3.2</ele>
        <time>2019-07-11T22:38:03Z</time>
      </trkpt>
      <trkpt lat="51.228454259043" lon="4.458286258093">
        <ele>1.2</ele>
        <time>2019-07-11T22:38:10Z</time>
      </trkpt>
      <trkpt lat="51.228592476574" lon="4.458178550678">
        <ele>0</ele>
        <time>2019-07-11T22:38:16Z</time>
      </trkpt>
      <trkpt lat="51.228625333622" lon="4.458186932578">
        <ele>0.6</ele>
        <time>2019-07-11T22:38:18Z</time>
      </trkpt>
      <trkpt lat="51.228735387969" lon="4.458159020851">
        <ele>0</ele>
        <time>2019-07-11T22:38:27Z</time>
      </trkpt>
    </trkseg>
  </trk>
</gpx>